createdAt,value
2018-02-08T00:02:00.449Z,95.00
2018-02-08T00:04:28.084Z,95.00
2018-02-08T00:06:56.476Z,95.30
2018-02-08T00:09:24.128Z,95.30
2018-02-08T00:11:52.553Z,95.60
2018-02-08T00:14:20.174Z,95.60
2018-02-08T00:16:48.566Z,95.70
2018-02-08T00:19:16.205Z,95.70
2018-02-08T00:21:44.578Z,95.80
2018-02-08T00:24:13.000Z,95.90
2018-02-08T00:26:40.612Z,95.90
2018-02-08T00:29:08.227Z,96.00
2018-02-08T00:31:35.872Z,96.00
2018-02-08T00:34:03.509Z,95.90
2018-02-08T00:36:31.916Z,96.00
2018-02-08T00:38:59.598Z,96.00
2018-02-08T00:41:27.226Z,95.90
2018-02-08T00:43:54.855Z,96.00
2018-02-08T00:46:22.514Z,96.20
2018-02-08T00:48:50.152Z,96.40
2018-02-08T00:51:17.768Z,96.10
2018-02-08T00:53:45.402Z,96.20
2018-02-08T00:56:13.785Z,96.50
2018-02-08T00:58:42.197Z,96.60
2018-02-08T01:01:09.806Z,96.60
2018-02-08T01:03:37.445Z,96.70
2018-02-08T01:06:05.055Z,96.80
2018-02-08T01:08:33.470Z,97.00
2018-02-08T01:11:01.112Z,97.00
2018-02-08T01:13:28.799Z,96.90
2018-02-08T01:15:56.431Z,96.90
2018-02-08T01:18:24.842Z,97.20
2018-02-08T01:20:52.530Z,97.20
2018-02-08T01:23:20.182Z,97.20
2018-02-08T01:25:47.839Z,97.40
2018-02-08T01:28:15.482Z,97.60
2018-02-08T01:30:43.169Z,97.60
2018-02-08T01:33:10.792Z,97.70
2018-02-08T01:35:38.441Z,97.90
2018-02-08T01:38:06.861Z,97.90
2018-02-08T01:40:34.511Z,97.90
2018-02-08T01:43:02.188Z,97.90
2018-02-08T01:45:29.819Z,97.80
2018-02-08T01:47:57.487Z,97.90
2018-02-08T01:50:25.167Z,98.00
2018-02-08T01:52:52.809Z,98.10
2018-02-08T01:55:20.461Z,98.30
2018-02-08T01:57:48.126Z,98.40
2018-02-08T02:00:15.789Z,98.60
2018-02-08T02:02:43.449Z,98.60
2018-02-08T02:05:11.080Z,98.90
2018-02-08T02:07:38.757Z,98.90
2018-02-08T02:10:07.184Z,98.90
2018-02-08T02:12:34.828Z,98.90
2018-02-08T02:15:02.494Z,98.80
2018-02-08T02:17:30.138Z,98.80
2018-02-08T02:19:57.783Z,98.80
2018-02-08T02:22:26.214Z,98.90
2018-02-08T02:24:53.844Z,98.90
2018-02-08T02:27:21.510Z,98.90
2018-02-08T02:29:49.172Z,99.10
2018-02-08T02:32:16.816Z,99.10
2018-02-08T02:34:45.257Z,99.10
2018-02-08T02:37:12.936Z,99.10
2018-02-08T02:39:40.605Z,99.20
2018-02-08T02:42:09.018Z,99.40
2018-02-08T02:44:36.679Z,99.40
2018-02-08T02:47:04.341Z,99.30
2018-02-08T02:49:31.975Z,99.30
2018-02-08T02:52:00.410Z,99.10
2018-02-08T02:54:28.233Z,99.10
2018-02-08T02:56:55.922Z,99.20
2018-02-08T02:59:23.588Z,99.20
2018-02-08T03:01:51.225Z,99.20
2018-02-08T03:04:18.886Z,99.20
2018-02-08T03:06:46.526Z,99.20
2018-02-08T03:09:14.976Z,99.50
2018-02-08T03:11:42.614Z,99.80
2018-02-08T03:14:10.306Z,99.40
2018-02-08T03:16:37.949Z,99.40
2018-02-08T03:19:05.584Z,99.30
2018-02-08T03:21:33.250Z,99.20
2018-02-08T03:24:00.897Z,99.20
2018-02-08T03:26:28.561Z,99.10
2018-02-08T03:28:57.105Z,99.00
2018-02-08T03:31:26.413Z,99.10
2018-02-08T03:33:54.072Z,99.10
2018-02-08T03:36:21.713Z,99.00
2018-02-08T03:38:49.410Z,99.00
2018-02-08T03:41:17.858Z,98.90
2018-02-08T03:43:45.519Z,98.90
2018-02-08T03:46:13.158Z,98.80
2018-02-08T03:48:40.830Z,98.80
2018-02-08T03:51:08.468Z,98.60
2018-02-08T03:53:36.119Z,99.00
2018-02-08T03:56:03.792Z,99.30
2018-02-08T03:58:31.453Z,99.60
2018-02-08T04:00:59.106Z,99.60
2018-02-08T04:03:26.767Z,99.50
2018-02-08T04:05:54.406Z,99.50
2018-02-08T04:08:22.868Z,99.70
2018-02-08T04:10:50.520Z,99.70
2018-02-08T04:13:18.166Z,99.70
2018-02-08T04:15:45.815Z,99.80
2018-02-08T04:18:13.515Z,99.90
2018-02-08T04:20:41.162Z,99.90
2018-02-08T04:23:08.852Z,99.90
2018-02-08T04:25:37.278Z,99.90
2018-02-08T04:28:04.989Z,99.90
2018-02-08T04:30:33.476Z,99.90
2018-02-08T04:33:01.151Z,99.90
2018-02-08T04:35:29.599Z,99.90
2018-02-08T04:37:57.232Z,99.90
2018-02-08T04:40:37.200Z,99.90
2018-02-08T04:43:16.835Z,99.90
2018-02-08T04:45:56.378Z,99.90
2018-02-08T04:48:24.021Z,99.90
2018-02-08T04:50:51.664Z,99.90
2018-02-08T04:53:19.349Z,99.90
2018-02-08T04:55:46.991Z,99.90
2018-02-08T04:58:14.669Z,99.90
2018-02-08T05:00:42.419Z,99.90
2018-02-08T05:03:10.093Z,99.90
2018-02-08T05:05:37.806Z,99.90
2018-02-08T05:08:05.447Z,99.90
2018-02-08T05:10:33.104Z,99.90
2018-02-08T05:13:00.761Z,99.90
2018-02-08T05:15:29.187Z,99.90
2018-02-08T05:17:57.616Z,99.90
2018-02-08T05:20:25.295Z,99.90
2018-02-08T05:22:52.968Z,99.90
2018-02-08T05:25:20.639Z,99.90
2018-02-08T05:27:48.297Z,99.90
2018-02-08T05:30:15.964Z,99.90
2018-02-08T05:32:43.632Z,99.90
2018-02-08T05:35:12.035Z,99.90
2018-02-08T05:37:39.671Z,99.90
2018-02-08T05:40:08.110Z,99.80
2018-02-08T05:42:35.806Z,99.80
2018-02-08T05:45:03.520Z,99.90
2018-02-08T05:47:31.183Z,99.90
2018-02-08T05:49:58.839Z,99.90
2018-02-08T05:52:26.526Z,99.90
2018-02-08T05:54:54.171Z,99.90
2018-02-08T05:57:21.871Z,99.90
2018-02-08T05:59:49.517Z,99.90
2018-02-08T06:02:17.168Z,99.90
2018-02-08T06:04:45.890Z,99.90
2018-02-08T06:07:13.529Z,99.90
2018-02-08T06:09:41.180Z,99.90
2018-02-08T06:12:08.885Z,99.90
2018-02-08T06:14:37.306Z,99.90
2018-02-08T06:17:04.957Z,99.90
2018-02-08T06:19:32.662Z,99.90
2018-02-08T06:22:00.331Z,99.90
2018-02-08T06:24:27.990Z,99.90
2018-02-08T06:26:55.670Z,99.90
2018-02-08T06:29:24.093Z,99.90
2018-02-08T06:31:51.797Z,99.90
2018-02-08T06:34:19.448Z,99.90
2018-02-08T06:36:47.101Z,99.90
2018-02-08T06:39:14.796Z,99.90
2018-02-08T06:41:43.222Z,99.90
2018-02-08T06:44:10.871Z,99.90
2018-02-08T06:46:38.599Z,99.90
2018-02-08T06:49:07.183Z,99.90
2018-02-08T06:51:34.838Z,99.90
2018-02-08T06:54:02.512Z,99.90
2018-02-08T06:56:30.997Z,99.90
2018-02-08T06:58:59.406Z,99.90
2018-02-08T07:01:27.278Z,99.90
2018-02-08T07:03:54.992Z,99.90
2018-02-08T07:06:22.637Z,99.90
2018-02-08T07:08:50.301Z,99.90
2018-02-08T07:11:18.998Z,99.90
2018-02-08T07:13:46.654Z,99.90
2018-02-08T07:16:14.461Z,99.90
2018-02-08T07:18:42.187Z,99.90
2018-02-08T07:21:09.833Z,99.90
2018-02-08T07:23:38.253Z,99.80
2018-02-08T07:26:06.703Z,99.80
2018-02-08T07:28:34.348Z,99.80
2018-02-08T07:31:01.999Z,99.70
2018-02-08T07:33:29.704Z,99.70
2018-02-08T07:35:57.377Z,99.90
2018-02-08T07:38:25.798Z,99.80
2018-02-08T07:40:53.575Z,99.80
2018-02-08T07:43:21.254Z,99.90
2018-02-08T07:45:48.909Z,99.50
2018-02-08T07:48:16.599Z,99.70
2018-02-08T07:50:45.017Z,99.70
2018-02-08T07:53:12.669Z,99.70
2018-02-08T07:55:40.341Z,99.80
2018-02-08T07:58:08.084Z,99.40
2018-02-08T08:00:36.504Z,99.30
2018-02-08T08:03:04.164Z,99.30
2018-02-08T08:05:31.875Z,98.90
2018-02-08T08:08:00.328Z,99.10
2018-02-08T08:10:27.984Z,99.10
2018-02-08T08:12:55.674Z,98.90
2018-02-08T08:15:23.317Z,98.80
2018-02-08T08:17:50.974Z,99.90
2018-02-08T08:20:18.697Z,98.90
2018-02-08T08:22:46.355Z,98.90
2018-02-08T08:25:14.003Z,98.90
2018-02-08T08:27:42.460Z,98.40
2018-02-08T08:30:10.118Z,98.40
2018-02-08T08:32:37.807Z,98.40
2018-02-08T08:35:06.215Z,98.30
2018-02-08T08:37:33.883Z,98.30
2018-02-08T08:40:01.564Z,97.90
2018-02-08T08:42:29.207Z,97.80
2018-02-08T08:44:56.858Z,97.70
2018-02-08T08:47:24.610Z,97.20
2018-02-08T08:49:52.367Z,97.30
2018-02-08T08:52:20.167Z,97.30
2018-02-08T08:54:47.888Z,97.00
2018-02-08T08:57:15.696Z,96.80
2018-02-08T08:59:43.364Z,96.80
2018-02-08T09:02:11.079Z,96.50
2018-02-08T09:04:39.492Z,96.40
2018-02-08T09:07:07.151Z,96.40
2018-02-08T09:09:34.830Z,96.20
2018-02-08T09:12:02.486Z,95.70
2018-02-08T09:14:30.213Z,95.50
2018-02-08T09:16:57.866Z,95.70
2018-02-08T09:19:26.273Z,95.60
2018-02-08T09:21:54.161Z,95.60
2018-02-08T09:24:21.803Z,95.40
2018-02-08T09:26:49.456Z,95.00
2018-02-08T09:29:17.160Z,94.90
2018-02-08T09:31:44.833Z,95.00
2018-02-08T09:34:12.502Z,94.90
2018-02-08T09:36:40.199Z,94.70
2018-02-08T09:39:07.916Z,94.70
2018-02-08T09:41:35.568Z,94.50
2018-02-08T09:44:04.008Z,94.70
2018-02-08T09:46:31.681Z,94.70
2018-02-08T09:48:59.406Z,94.70
2018-02-08T09:51:27.817Z,94.40
2018-02-08T09:53:55.481Z,94.40
2018-02-08T09:56:23.188Z,94.10
2018-02-08T09:58:50.851Z,93.80
2018-02-08T10:01:18.520Z,93.70
2018-02-08T10:03:46.200Z,93.70
2018-02-08T10:06:15.672Z,92.90
2018-02-08T10:08:43.325Z,92.90
2018-02-08T10:11:11.005Z,92.60
2018-02-08T10:13:38.672Z,93.00
2018-02-08T10:16:06.372Z,92.80
2018-02-08T10:18:34.014Z,92.60
2018-02-08T10:21:02.440Z,91.80
2018-02-08T10:23:30.152Z,91.70
2018-02-08T10:25:58.559Z,91.40
2018-02-08T10:28:26.249Z,91.40
2018-02-08T10:30:53.951Z,91.40
2018-02-08T10:33:21.601Z,91.70
2018-02-08T10:35:49.257Z,91.70
2018-02-08T10:38:16.937Z,91.20
2018-02-08T10:40:44.595Z,91.10
2018-02-08T10:43:12.278Z,91.10
2018-02-08T10:45:40.692Z,90.80
2018-02-08T10:48:08.345Z,90.80
2018-02-08T10:50:36.033Z,90.60
2018-02-08T10:53:03.709Z,90.20
2018-02-08T10:55:31.403Z,90.70
2018-02-08T10:57:59.828Z,90.90
2018-02-08T11:00:27.477Z,90.80
2018-02-08T11:02:55.184Z,90.40
2018-02-08T11:05:22.842Z,90.30
2018-02-08T11:07:50.497Z,89.70
2018-02-08T11:10:18.198Z,89.30
2018-02-08T11:12:45.873Z,89.70
2018-02-08T11:15:13.615Z,87.50
2018-02-08T11:17:41.314Z,89.10
2018-02-08T11:20:08.976Z,88.30
2018-02-08T11:22:36.641Z,88.30
2018-02-08T11:25:04.288Z,87.60
2018-02-08T11:27:32.037Z,87.70
2018-02-08T11:29:59.684Z,88.80
2018-02-08T11:32:28.108Z,88.70
2018-02-08T11:34:55.793Z,88.70
2018-02-08T11:37:23.443Z,87.40
2018-02-08T11:39:51.131Z,87.40
2018-02-08T11:42:18.812Z,86.20
2018-02-08T11:44:47.228Z,84.90
2018-02-08T11:47:14.914Z,84.80
2018-02-08T11:49:42.557Z,85.50
2018-02-08T11:52:10.221Z,83.90
2018-02-08T11:54:37.870Z,84.30
2018-02-08T11:57:05.551Z,84.00
2018-02-08T11:59:33.193Z,83.80
2018-02-08T12:02:00.857Z,83.30
2018-02-08T12:04:28.525Z,82.00
2018-02-08T12:06:56.264Z,81.70
2018-02-08T12:09:24.036Z,82.90
2018-02-08T12:11:51.802Z,82.50
2018-02-08T12:14:19.472Z,82.10
2018-02-08T12:16:47.178Z,81.90
2018-02-08T12:19:14.841Z,81.30
2018-02-08T12:21:42.526Z,80.80
2018-02-08T12:24:11.016Z,80.80
2018-02-08T12:26:39.289Z,80.70
2018-02-08T12:29:07.700Z,80.20
2018-02-08T12:31:35.377Z,80.20
2018-02-08T12:34:03.017Z,78.70
2018-02-08T12:36:30.669Z,79.40
2018-02-08T12:38:58.344Z,77.80
2018-02-08T12:41:25.993Z,77.40
2018-02-08T12:43:53.686Z,76.70
2018-02-08T12:46:22.997Z,74.70
2018-02-08T12:48:50.675Z,74.60
2018-02-08T12:51:18.322Z,74.00
2018-02-08T12:53:45.970Z,73.20
2018-02-08T12:56:13.662Z,73.10
2018-02-08T12:58:41.317Z,75.10
2018-02-08T13:01:09.006Z,76.30
2018-02-08T13:03:37.422Z,77.30
2018-02-08T13:06:05.087Z,78.00
2018-02-08T13:08:32.776Z,78.40
2018-02-08T13:11:00.410Z,79.50
2018-02-08T13:13:28.087Z,81.90
2018-02-08T13:15:55.766Z,81.70
2018-02-08T13:18:23.406Z,81.60
2018-02-08T13:20:51.058Z,82.80
2018-02-08T13:23:18.729Z,83.70
2018-02-08T13:25:46.388Z,84.80
2018-02-08T13:28:14.053Z,85.10
2018-02-08T13:30:41.761Z,86.90
2018-02-08T13:33:09.409Z,87.90
2018-02-08T13:35:37.052Z,87.90
2018-02-08T13:38:04.728Z,87.40
2018-02-08T13:40:34.755Z,87.30
2018-02-08T13:43:02.438Z,87.30
2018-02-08T13:45:30.896Z,87.20
2018-02-08T13:48:15.255Z,87.70
2018-02-08T13:53:55.777Z,85.20
2018-02-08T13:56:26.292Z,82.80
2018-02-08T13:58:59.596Z,81.50
2018-02-08T14:01:27.290Z,81.50
2018-02-08T14:03:54.939Z,81.00
2018-02-08T14:06:22.593Z,80.60
2018-02-08T14:08:50.273Z,80.30
2018-02-08T14:11:17.939Z,80.20
2018-02-08T14:13:45.589Z,79.50
2018-02-08T14:16:13.311Z,80.20
2018-02-08T14:18:41.738Z,81.80
2018-02-08T14:21:09.383Z,81.70
2018-02-08T14:23:37.061Z,82.20
2018-02-08T14:26:04.712Z,82.60
2018-02-08T14:28:32.383Z,83.70
2018-02-08T14:31:00.134Z,84.90
2018-02-08T14:33:27.789Z,85.50
2018-02-08T14:35:55.446Z,85.50
2018-02-08T14:38:23.123Z,86.20
2018-02-08T14:40:50.764Z,86.90
2018-02-08T14:43:19.249Z,87.50
2018-02-08T14:45:46.918Z,87.40
2018-02-08T14:48:14.556Z,87.20
2018-02-08T14:50:43.046Z,87.90
2018-02-08T14:53:10.709Z,87.90
2018-02-08T14:55:39.125Z,88.50
2018-02-08T14:58:06.805Z,88.40
2018-02-08T15:00:34.523Z,88.70
2018-02-08T15:03:02.186Z,88.20
2018-02-08T15:05:29.844Z,87.60
2018-02-08T15:07:57.571Z,87.40
2018-02-08T15:10:25.251Z,87.30
2018-02-08T15:12:53.664Z,86.40
2018-02-08T15:15:21.450Z,86.30
2018-02-08T15:17:49.143Z,86.60
2018-02-08T15:20:16.826Z,86.60
2018-02-08T15:22:45.242Z,86.60
2018-02-08T15:25:12.930Z,86.70
2018-02-08T15:27:40.647Z,86.80
2018-02-08T15:30:08.289Z,87.00
2018-02-08T15:32:36.711Z,88.70
2018-02-08T15:35:04.513Z,88.70
2018-02-08T15:37:32.169Z,88.70
2018-02-08T15:39:59.858Z,89.40
2018-02-08T15:42:28.300Z,90.20
2018-02-08T15:44:55.975Z,90.20
2018-02-08T15:47:23.697Z,90.60
2018-02-08T15:49:51.364Z,90.60
2018-02-08T15:52:19.473Z,91.00
2018-02-08T15:54:47.248Z,91.20
2018-02-08T15:57:14.939Z,91.30
2018-02-08T15:59:43.356Z,91.50
2018-02-08T16:02:11.096Z,91.50
2018-02-08T16:04:38.795Z,91.70
2018-02-08T16:07:08.306Z,92.10
2018-02-08T16:09:35.993Z,91.90
2018-02-08T16:12:03.644Z,91.90
2018-02-08T16:14:31.294Z,92.40
2018-02-08T16:16:58.974Z,92.80
2018-02-08T16:19:26.629Z,93.50
2018-02-08T16:21:54.339Z,93.80
2018-02-08T16:24:21.994Z,94.40
2018-02-08T16:26:49.791Z,94.70
2018-02-08T16:29:17.488Z,95.00
2018-02-08T16:31:45.137Z,95.20
2018-02-08T16:34:12.860Z,95.60
2018-02-08T16:36:40.532Z,96.00
2018-02-08T16:39:08.190Z,96.40
2018-02-08T16:41:35.913Z,96.80
2018-02-08T16:44:04.326Z,97.90
2018-02-08T16:46:31.966Z,97.90
2018-02-08T16:49:00.417Z,98.40
2018-02-08T16:51:28.065Z,98.40
2018-02-08T16:53:55.695Z,98.70
2018-02-08T16:56:23.383Z,98.80
2018-02-08T16:58:51.036Z,98.80
2018-02-08T17:01:18.685Z,98.70
2018-02-08T17:03:46.390Z,99.00
2018-02-08T17:06:14.043Z,99.30
2018-02-08T17:08:41.762Z,99.60
2018-02-08T17:11:09.412Z,99.70
2018-02-08T17:13:37.065Z,99.80
2018-02-08T17:16:04.759Z,99.90
2018-02-08T17:18:32.409Z,99.90
2018-02-08T17:21:00.100Z,99.90
2018-02-08T17:23:28.510Z,99.90
2018-02-08T17:25:56.938Z,99.90
2018-02-08T17:28:24.657Z,99.90
2018-02-08T17:30:53.150Z,99.90
2018-02-08T17:33:20.808Z,99.90
2018-02-08T17:35:49.282Z,99.90
2018-02-08T17:38:17.696Z,99.90
2018-02-08T17:40:45.345Z,99.90
2018-02-08T17:43:13.024Z,99.90
2018-02-08T17:45:40.661Z,99.90
2018-02-08T17:48:08.378Z,99.90
2018-02-08T17:50:36.051Z,99.90
2018-02-08T17:53:03.717Z,99.90
2018-02-08T17:55:31.404Z,99.90
2018-02-08T17:57:59.819Z,99.90
2018-02-08T18:00:27.536Z,99.90
2018-02-08T18:02:56.019Z,99.90
2018-02-08T18:05:24.452Z,99.90
2018-02-08T18:07:52.093Z,99.90
2018-02-08T18:10:19.782Z,99.90
2018-02-08T18:12:47.454Z,99.90
2018-02-08T18:15:15.352Z,99.90
2018-02-08T18:17:43.773Z,99.90
2018-02-08T18:20:11.425Z,99.90
2018-02-08T18:22:39.370Z,99.90
2018-02-08T18:25:07.848Z,99.90
2018-02-08T18:27:36.520Z,99.90
2018-02-08T18:30:04.981Z,99.90
2018-02-08T18:32:32.796Z,99.90
2018-02-08T18:35:00.489Z,99.90
2018-02-08T18:37:28.205Z,99.90
2018-02-08T18:39:56.627Z,99.90
2018-02-08T18:42:24.297Z,99.90
2018-02-08T18:44:51.999Z,99.90
2018-02-08T18:47:20.424Z,99.90
2018-02-08T18:49:48.103Z,99.90
2018-02-08T18:52:15.810Z,99.90
2018-02-08T18:54:44.224Z,99.90
2018-02-08T18:57:11.881Z,99.90
2018-02-08T18:59:39.584Z,99.90
2018-02-08T19:02:07.242Z,99.90
2018-02-08T19:04:34.897Z,99.90
2018-02-08T19:07:02.600Z,99.90
2018-02-08T19:09:31.044Z,99.90
2018-02-08T19:11:58.716Z,99.90
2018-02-08T19:14:26.398Z,99.90
2018-02-08T19:16:54.826Z,99.90
2018-02-08T19:19:22.552Z,99.90
2018-02-08T19:21:51.016Z,99.90
2018-02-08T19:24:18.665Z,99.90
2018-02-08T19:26:46.398Z,99.90
2018-02-08T19:29:14.062Z,99.90
2018-02-08T19:31:41.739Z,99.90
2018-02-08T19:34:09.429Z,99.90
2018-02-08T19:36:37.104Z,99.90
2018-02-08T19:39:05.537Z,99.90
2018-02-08T19:41:33.247Z,99.90
2018-02-08T19:44:01.672Z,99.90
2018-02-08T19:46:29.328Z,99.90
2018-02-08T19:48:57.029Z,99.90
2018-02-08T19:51:24.681Z,99.90
2018-02-08T19:53:52.341Z,99.90
2018-02-08T19:56:20.044Z,99.90
2018-02-08T19:58:48.448Z,99.90
2018-02-08T20:01:16.105Z,99.90
2018-02-08T20:03:43.809Z,99.90
2018-02-08T20:06:11.447Z,99.90
2018-02-08T20:08:39.129Z,99.90
2018-02-08T20:11:06.818Z,99.90
2018-02-08T20:13:35.240Z,99.90
2018-02-08T20:16:03.000Z,99.90
2018-02-08T20:18:30.665Z,99.90
2018-02-08T20:20:58.330Z,99.90
2018-02-08T20:23:26.119Z,99.90
2018-02-08T20:25:53.764Z,99.90
2018-02-08T20:28:21.498Z,99.90
2018-02-08T20:33:53.117Z,99.90
2018-02-08T20:36:20.785Z,99.90
2018-02-08T20:38:48.440Z,99.90
2018-02-08T20:41:16.105Z,99.90
2018-02-08T20:43:43.792Z,99.90
2018-02-08T20:46:11.440Z,99.90
2018-02-08T20:48:39.104Z,99.90
2018-02-08T20:51:06.772Z,99.90
2018-02-08T20:53:34.421Z,99.90
2018-02-08T20:56:02.063Z,99.90
2018-02-08T20:58:29.743Z,99.90
2018-02-08T21:00:57.389Z,99.90
2018-02-08T21:03:25.066Z,99.90
2018-02-08T21:05:52.717Z,99.90
2018-02-08T21:08:20.384Z,99.90
2018-02-08T21:10:48.044Z,99.90
2018-02-08T21:13:15.685Z,99.90
2018-02-08T21:15:44.393Z,99.90
2018-02-08T21:18:12.037Z,99.90
2018-02-08T21:20:39.677Z,99.90
2018-02-08T21:23:07.379Z,99.90
2018-02-08T21:25:35.026Z,99.90
2018-02-08T21:28:03.468Z,99.90
2018-02-08T21:30:31.921Z,99.90
2018-02-08T21:32:59.593Z,99.90
2018-02-08T21:35:27.241Z,99.90
2018-02-08T21:37:54.918Z,99.90
2018-02-08T21:40:22.635Z,99.70
2018-02-08T21:42:50.339Z,99.90
2018-02-08T21:45:17.987Z,99.80
2018-02-08T21:47:45.706Z,99.70
2018-02-08T21:50:13.347Z,99.70
2018-02-08T21:52:41.759Z,99.90
2018-02-08T21:55:09.425Z,99.90
2018-02-08T21:57:37.051Z,99.90
2018-02-08T22:00:05.528Z,99.80
2018-02-08T22:02:33.926Z,99.80
2018-02-08T22:05:01.570Z,99.80
2018-02-08T22:07:30.088Z,99.70
2018-02-08T22:09:57.739Z,99.70
2018-02-08T22:12:25.379Z,99.60
2018-02-08T22:14:53.855Z,99.80
2018-02-08T22:17:22.280Z,99.70
2018-02-08T22:19:49.934Z,99.70
2018-02-08T22:22:17.613Z,99.60
2018-02-08T22:24:45.262Z,99.60
2018-02-08T22:27:12.909Z,99.60
2018-02-08T22:29:40.613Z,99.60
2018-02-08T22:32:08.261Z,99.50
2018-02-08T22:34:35.901Z,99.60
2018-02-08T22:37:03.597Z,99.50
2018-02-08T22:39:31.245Z,99.50
2018-02-08T22:41:58.888Z,99.60
2018-02-08T22:44:26.572Z,99.40
2018-02-08T22:46:54.208Z,99.50
2018-02-08T22:49:21.870Z,99.40
2018-02-08T22:51:49.531Z,99.40
2018-02-08T22:54:17.221Z,99.30
2018-02-08T22:56:44.879Z,99.30
2018-02-08T22:59:12.552Z,99.30
2018-02-08T23:01:40.198Z,99.30
2018-02-08T23:04:07.866Z,99.30
2018-02-08T23:06:35.504Z,99.40
2018-02-08T23:09:03.156Z,99.50
2018-02-08T23:11:30.830Z,99.50
2018-02-08T23:13:58.470Z,99.50
2018-02-08T23:16:26.924Z,99.70
2018-02-08T23:18:54.587Z,99.70
2018-02-08T23:21:22.232Z,99.90
2018-02-08T23:23:49.893Z,99.70
2018-02-08T23:26:17.560Z,99.80
2018-02-08T23:28:45.249Z,99.80
2018-02-08T23:31:13.681Z,99.50
2018-02-08T23:33:41.342Z,99.50
2018-02-08T23:36:09.025Z,99.30
2018-02-08T23:38:36.682Z,99.30
2018-02-08T23:41:04.349Z,99.40
2018-02-08T23:43:32.032Z,99.60
2018-02-08T23:46:00.443Z,99.50
2018-02-08T23:48:28.133Z,99.50
2018-02-08T23:50:55.783Z,99.20
2018-02-08T23:53:23.446Z,99.20
2018-02-08T23:55:51.130Z,99.30
2018-02-08T23:58:18.814Z,99.40
